Flagler Aerial Spraying Inc Airport


Codes: CO00/
Name: Flagler Aerial Spraying Inc Airport
City: Flagler
Country: United States
Elevation: 4945 ft.

Photos at Flagler Aerial Spraying Inc Airport


   Photos courtesy of SpottingLog. You can add your own sightings and photos by signing up for a free trial today.



No photos found.

Weather at Flagler Aerial Spraying Inc Airport


Time (UTC)DescriptionTempratureWindCloud coverageVisibilityPressureHumidity
21-Jun-2024 12:00Broken Clouds17°C20 mph, S53%10000m1014hPa73%
21-Jun-2024 15:00Broken Clouds19°C13 mph, SW68%10000m1014hPa64%
21-Jun-2024 18:00Broken Clouds25°C18 mph, SW84%10000m1011hPa43%
21-Jun-2024 21:00Overcast Clouds31°C16 mph, SW100%10000m1007hPa24%
22-Jun-2024 00:00Broken Clouds32°C16 mph, SW52%10000m1005hPa20%
22-Jun-2024 03:00Light Rain22°C9 mph, N98%10000m1010hPa57%
22-Jun-2024 06:00Overcast Clouds20°C9 mph, NW90%10000m1011hPa58%
22-Jun-2024 09:00Broken Clouds18°C9 mph, NW69%10000m1012hPa75%
22-Jun-2024 12:00Overcast Clouds17°C9 mph, NW85%10000m1013hPa74%
22-Jun-2024 15:00Overcast Clouds24°C13 mph, N87%10000m1013hPa40%
22-Jun-2024 18:00Overcast Clouds28°C13 mph, N94%10000m1013hPa25%
22-Jun-2024 21:00Overcast Clouds30°C11 mph, N100%10000m1011hPa20%
23-Jun-2024 00:00Broken Clouds31°C4 mph, E53%10000m1010hPa19%
23-Jun-2024 03:00Overcast Clouds26°C7 mph, SW100%10000m1013hPa30%
23-Jun-2024 06:00Overcast Clouds24°C7 mph, S99%10000m1014hPa33%
23-Jun-2024 09:00Overcast Clouds22°C11 mph, SW95%10000m1013hPa37%
23-Jun-2024 12:00Broken Clouds20°C11 mph, SW80%10000m1014hPa41%
23-Jun-2024 15:00Broken Clouds28°C16 mph, SW70%10000m1012hPa33%
23-Jun-2024 18:00Scattered Clouds33°C13 mph, SW38%10000m1010hPa23%
23-Jun-2024 21:00Clear Sky34°C11 mph, SW1%10000m1007hPa17%
24-Jun-2024 00:00Scattered Clouds31°C25 mph, S34%10000m1006hPa27%
24-Jun-2024 03:00Overcast Clouds25°C25 mph, S89%10000m1008hPa40%
24-Jun-2024 06:00Broken Clouds23°C16 mph, SW78%10000m1009hPa49%
24-Jun-2024 09:00Overcast Clouds21°C11 mph, S97%10000m1008hPa57%
24-Jun-2024 12:00Overcast Clouds20°C11 mph, SW96%10000m1008hPa58%
24-Jun-2024 15:00Broken Clouds29°C7 mph, W79%10000m1006hPa31%
24-Jun-2024 18:00Overcast Clouds35°C9 mph, N87%10000m1004hPa16%
24-Jun-2024 21:00Broken Clouds36°C7 mph, NE69%10000m1001hPa14%
25-Jun-2024 00:00Light Rain28°C2 mph, S76%10000m1006hPa32%
25-Jun-2024 03:00Broken Clouds24°C7 mph, N69%10000m1007hPa46%
25-Jun-2024 06:00Broken Clouds24°C13 mph, NW84%10000m1007hPa38%
25-Jun-2024 09:00Broken Clouds22°C13 mph, NW76%10000m1007hPa48%
25-Jun-2024 12:00Broken Clouds21°C13 mph, NW70%10000m1008hPa44%
25-Jun-2024 15:00Clear Sky27°C22 mph, N6%10000m1009hPa26%
25-Jun-2024 18:00Clear Sky30°C20 mph, N10%10000m1010hPa25%
25-Jun-2024 21:00Clear Sky31°C16 mph, NE0%10000m1009hPa25%
26-Jun-2024 00:00Clear Sky30°C13 mph, NE0%10000m1010hPa26%
26-Jun-2024 03:00Light Rain21°C7 mph, SE76%10000m1014hPa63%
26-Jun-2024 06:00Scattered Clouds20°C7 mph, SE42%10000m1015hPa56%
26-Jun-2024 09:00Clear Sky17°C9 mph, S5%10000m1016hPa60%